Time;durP1;ratioP1;P1;durP2;ratioP2;P2;SDS_P1;SDS_P2;PMS_P1;PMS_P2;Temp;Humidity;BMP_temperature;BMP_pressure;BME280_temperature;BME280_humidity;BME280_pressure;Samples;Min_cycle;Max_cycle;Signal;HPM_P1;HPM_P2
2021/09/03 00:01:45;;;;;;;9.98;8.13;;;;;;;;;;5074658;28;20473;-73
2021/09/03 00:04:11;;;;;;;7.03;6.18;;;;;;;;;;5074458;28;20043;-73
2021/09/03 00:06:37;;;;;;;11.75;7.40;;;;;;;;;;5074830;28;20016;-73
2021/09/03 00:09:03;;;;;;;16.58;7.82;;;;;;;;;;5074937;28;20028;-73
2021/09/03 00:11:29;;;;;;;9.00;7.28;;;;;;;;;;5074811;28;20119;-73
2021/09/03 00:13:55;;;;;;;7.65;6.47;;;;;;;;;;5074938;28;20020;-74
2021/09/03 00:16:21;;;;;;;9.05;7.85;;;;;;;;;;5074997;28;20025;-73
2021/09/03 00:18:47;;;;;;;10.43;6.13;;;;;;;;;;5074688;28;20079;-73
2021/09/03 00:21:13;;;;;;;7.95;7.22;;;;;;;;;;5075106;28;20055;-72
2021/09/03 00:23:39;;;;;;;8.75;7.85;;;;;;;;;;5074706;28;20016;-73
2021/09/03 00:26:05;;;;;;;10.02;7.65;;;;;;;;;;5074521;28;20119;-73
2021/09/03 00:28:31;;;;;;;9.65;7.70;;;;;;;;;;5074388;28;20035;-73
2021/09/03 00:30:57;;;;;;;9.43;8.15;;;;;;;;;;5074636;28;20575;-73
2021/09/03 00:33:23;;;;;;;9.00;7.60;;;;;;;;;;5074514;28;20351;-73
2021/09/03 00:35:49;;;;;;;12.93;7.97;;;;;;;;;;5074051;28;20028;-73
2021/09/03 00:38:16;;;;;;;12.30;7.60;;;;;;;;;;5074284;28;20133;-73
2021/09/03 00:40:42;;;;;;;10.23;9.13;;;;;;;;;;5074162;28;20458;-72
2021/09/03 00:43:08;;;;;;;8.70;7.00;;;;;;;;;;5073960;28;20493;-73
2021/09/03 00:45:34;;;;;;;8.35;7.50;;;;;;;;;;5073654;28;20044;-73
2021/09/03 00:48:00;;;;;;;9.80;7.40;;;;;;;;;;5074853;28;20095;-72
2021/09/03 00:50:26;;;;;;;9.25;6.97;;;;;;;;;;5074221;28;20539;-73
2021/09/03 00:52:52;;;;;;;10.00;8.07;;;;;;;;;;5073795;28;20472;-73
2021/09/03 00:55:18;;;;;;;10.35;7.72;;;;;;;;;;5073610;28;20048;-73
2021/09/03 00:57:44;;;;;;;9.45;7.45;;;;;;;;;;5073501;28;20028;-73
2021/09/03 01:00:11;;;;;;;8.68;6.55;;;;;;;;;;5074069;28;20047;-73
2021/09/03 01:02:37;;;;;;;8.75;7.85;;;;;;;;;;5074101;28;20024;-73
2021/09/03 01:05:03;;;;;;;10.18;7.57;;;;;;;;;;5073741;28;20035;-73
2021/09/03 01:07:29;;;;;;;7.53;6.82;;;;;;;;;;5073903;28;20079;-74
2021/09/03 01:09:55;;;;;;;7.20;6.43;;;;;;;;;;5074057;28;20124;-73
2021/09/03 01:12:21;;;;;;;10.93;7.20;;;;;;;;;;5073586;28;20351;-73
2021/09/03 01:14:47;;;;;;;9.90;7.72;;;;;;;;;;5074175;28;20111;-73
2021/09/03 01:17:13;;;;;;;12.38;7.13;;;;;;;;;;5074297;28;20024;-73
2021/09/03 01:19:40;;;;;;;9.75;8.05;;;;;;;;;;5073975;28;20523;-73
2021/09/03 01:22:06;;;;;;;10.68;7.68;;;;;;;;;;5074138;28;20366;-73
2021/09/03 01:24:32;;;;;;;8.07;7.35;;;;;;;;;;5074099;28;20028;-73
2021/09/03 01:26:58;;;;;;;8.60;7.40;;;;;;;;;;5073970;28;20020;-73
2021/09/03 01:29:24;;;;;;;7.10;6.43;;;;;;;;;;5073723;28;20072;-73
2021/09/03 01:31:50;;;;;;;8.73;7.85;;;;;;;;;;5073522;28;20070;-73
2021/09/03 01:34:16;;;;;;;8.70;7.80;;;;;;;;;;5073711;28;20071;-72
2021/09/03 01:36:42;;;;;;;8.57;7.75;;;;;;;;;;5074249;28;20024;-73
2021/09/03 01:39:08;;;;;;;11.93;8.30;;;;;;;;;;5073834;28;20029;-72
2021/09/03 01:41:34;;;;;;;11.52;8.38;;;;;;;;;;5073621;28;20103;-73
2021/09/03 01:44:00;;;;;;;8.48;7.72;;;;;;;;;;5073799;28;20180;-73
2021/09/03 01:46:26;;;;;;;8.93;7.45;;;;;;;;;;5073386;28;20025;-73
2021/09/03 01:48:52;;;;;;;8.43;7.60;;;;;;;;;;5073795;28;20031;-73
2021/09/03 01:51:18;;;;;;;9.63;7.68;;;;;;;;;;5073821;28;20037;-73
2021/09/03 01:53:44;;;;;;;8.70;7.78;;;;;;;;;;5073353;28;20036;-72
2021/09/03 01:56:10;;;;;;;11.88;7.18;;;;;;;;;;5073376;28;20052;-72
2021/09/03 01:58:36;;;;;;;10.23;8.88;;;;;;;;;;5076259;28;20028;-72
2021/09/03 02:01:03;;;;;;;9.38;8.48;;;;;;;;;;5077887;28;20492;-72
2021/09/03 02:03:29;;;;;;;10.95;8.43;;;;;;;;;;5077601;28;20520;-73
2021/09/03 02:05:56;;;;;;;10.70;6.95;;;;;;;;;;5077476;28;20102;-73
2021/09/03 02:08:22;;;;;;;10.38;9.32;;;;;;;;;;5077551;28;20031;-72
2021/09/03 02:10:48;;;;;;;9.85;8.20;;;;;;;;;;5077756;28;20502;-72
2021/09/03 02:13:14;;;;;;;8.85;7.95;;;;;;;;;;5077465;28;20115;-73
2021/09/03 02:15:40;;;;;;;9.00;7.22;;;;;;;;;;5077341;28;20028;-72
2021/09/03 02:18:06;;;;;;;8.32;7.63;;;;;;;;;;5077611;28;20024;-73
2021/09/03 02:20:33;;;;;;;8.60;7.80;;;;;;;;;;5077463;28;20039;-72
2021/09/03 02:22:59;;;;;;;9.38;6.95;;;;;;;;;;5077261;28;20021;-73
2021/09/03 02:25:25;;;;;;;9.45;8.30;;;;;;;;;;5077479;28;20040;-72
2021/09/03 02:27:51;;;;;;;11.15;8.70;;;;;;;;;;5076798;28;20056;-73
2021/09/03 02:30:17;;;;;;;8.38;7.63;;;;;;;;;;5077344;28;20045;-72
2021/09/03 02:32:43;;;;;;;7.82;7.07;;;;;;;;;;5077010;28;20466;-73
2021/09/03 02:35:09;;;;;;;11.82;7.97;;;;;;;;;;5077314;28;20017;-73
2021/09/03 02:37:35;;;;;;;8.82;7.72;;;;;;;;;;5076776;28;20030;-73
2021/09/03 02:40:01;;;;;;;9.50;7.50;;;;;;;;;;5077052;28;20028;-73
2021/09/03 02:42:27;;;;;;;7.35;6.65;;;;;;;;;;5076911;28;20096;-73
2021/09/03 02:44:53;;;;;;;12.32;7.70;;;;;;;;;;5077450;28;20024;-73
2021/09/03 02:47:19;;;;;;;9.65;7.07;;;;;;;;;;5076905;28;20066;-73
2021/09/03 02:49:46;;;;;;;8.23;7.05;;;;;;;;;;5076968;28;20049;-73
2021/09/03 02:52:12;;;;;;;8.77;7.97;;;;;;;;;;5076798;28;20485;-73
2021/09/03 02:54:38;;;;;;;10.23;7.90;;;;;;;;;;5076608;28;21409;-73
2021/09/03 02:57:04;;;;;;;9.25;7.75;;;;;;;;;;5076437;28;20029;-72
2021/09/03 02:59:30;;;;;;;8.32;7.53;;;;;;;;;;5076726;28;20032;-73
2021/09/03 03:01:56;;;;;;;8.30;6.72;;;;;;;;;;5076673;28;20478;-73
2021/09/03 03:04:22;;;;;;;11.00;7.70;;;;;;;;;;5077029;28;20470;-73
2021/09/03 03:06:48;;;;;;;7.63;6.90;;;;;;;;;;5076589;28;20032;-73
2021/09/03 03:09:14;;;;;;;8.90;7.15;;;;;;;;;;5076294;28;20029;-73
2021/09/03 03:11:40;;;;;;;7.28;6.57;;;;;;;;;;5076079;28;20111;-73
2021/09/03 03:14:14;;;;;;;9.07;8.13;;;;;;;;;;5077153;28;20031;-73
2021/09/03 03:16:40;;;;;;;7.60;6.90;;;;;;;;;;5076589;28;20513;-73
2021/09/03 03:19:06;;;;;;;8.25;7.55;;;;;;;;;;5076112;28;20394;-72
2021/09/03 03:21:32;;;;;;;7.90;7.20;;;;;;;;;;5076022;28;20024;-73
2021/09/03 03:23:58;;;;;;;7.30;6.40;;;;;;;;;;5075732;28;20024;-73
2021/09/03 03:26:24;;;;;;;7.65;6.95;;;;;;;;;;5075806;28;20032;-73
2021/09/03 03:28:50;;;;;;;7.05;6.35;;;;;;;;;;5075980;28;20060;-73
2021/09/03 03:31:16;;;;;;;8.32;7.53;;;;;;;;;;5076016;28;20025;-72
2021/09/03 03:33:42;;;;;;;7.20;6.50;;;;;;;;;;5075678;28;20031;-73
2021/09/03 03:36:08;;;;;;;7.82;7.00;;;;;;;;;;5076023;28;20025;-73
2021/09/03 03:38:35;;;;;;;8.88;7.97;;;;;;;;;;5075880;28;20509;-73
2021/09/03 03:41:01;;;;;;;7.47;6.78;;;;;;;;;;5075271;28;20489;-73
2021/09/03 03:43:27;;;;;;;9.18;6.97;;;;;;;;;;5075710;28;20532;-72
2021/09/03 03:45:53;;;;;;;8.15;7.35;;;;;;;;;;5075449;28;20029;-72
2021/09/03 03:48:19;;;;;;;6.75;6.15;;;;;;;;;;5075312;28;20489;-72
2021/09/03 03:50:45;;;;;;;8.25;7.45;;;;;;;;;;5075482;28;20504;-72
2021/09/03 03:53:11;;;;;;;6.70;6.13;;;;;;;;;;5075598;28;20035;-73
2021/09/03 03:55:37;;;;;;;6.93;6.22;;;;;;;;;;5075171;28;20124;-73
2021/09/03 03:58:04;;;;;;;6.85;6.25;;;;;;;;;;5075878;28;20112;-72
2021/09/03 04:00:30;;;;;;;7.25;6.55;;;;;;;;;;5075286;28;20543;-72
2021/09/03 04:02:56;;;;;;;7.47;5.97;;;;;;;;;;5075476;28;20490;-72
2021/09/03 04:05:22;;;;;;;7.40;6.65;;;;;;;;;;5075383;28;20036;-72
2021/09/03 04:07:49;;;;;;;7.35;6.70;;;;;;;;;;5075054;28;20161;-73
2021/09/03 04:10:15;;;;;;;7.82;6.95;;;;;;;;;;5074964;28;20535;-72
2021/09/03 04:12:41;;;;;;;7.43;6.75;;;;;;;;;;5075576;28;20029;-72
2021/09/03 04:15:08;;;;;;;7.35;6.65;;;;;;;;;;5075086;28;20021;-72
2021/09/03 04:17:34;;;;;;;7.72;6.97;;;;;;;;;;5074749;28;20024;-73
2021/09/03 04:20:00;;;;;;;6.60;6.00;;;;;;;;;;5074186;28;20016;-73
2021/09/03 04:22:26;;;;;;;7.13;6.43;;;;;;;;;;5074879;28;20020;-73
2021/09/03 04:24:52;;;;;;;7.43;6.13;;;;;;;;;;5074264;28;20382;-72
2021/09/03 04:27:18;;;;;;;7.25;6.65;;;;;;;;;;5074898;28;20347;-73
2021/09/03 04:29:44;;;;;;;6.55;5.95;;;;;;;;;;5074367;28;20040;-72
2021/09/03 04:32:10;;;;;;;7.20;6.50;;;;;;;;;;5074712;28;20339;-72
2021/09/03 04:34:36;;;;;;;7.07;6.40;;;;;;;;;;5074586;28;20020;-73
2021/09/03 04:37:02;;;;;;;7.05;6.25;;;;;;;;;;5074649;28;20020;-73
2021/09/03 04:39:28;;;;;;;6.93;6.32;;;;;;;;;;5073991;28;20029;-74
2021/09/03 04:41:54;;;;;;;9.18;6.20;;;;;;;;;;5074862;28;20020;-73
2021/09/03 04:44:20;;;;;;;7.28;6.07;;;;;;;;;;5074980;28;20444;-72
2021/09/03 04:46:46;;;;;;;7.95;6.40;;;;;;;;;;5074258;28;20048;-72
2021/09/03 04:49:12;;;;;;;5.90;5.30;;;;;;;;;;5074148;28;20029;-73
2021/09/03 04:51:39;;;;;;;6.10;5.50;;;;;;;;;;5074044;28;20080;-72
2021/09/03 04:54:05;;;;;;;13.05;6.47;;;;;;;;;;5072552;28;20521;-73
2021/09/03 04:56:31;;;;;;;12.73;6.63;;;;;;;;;;5073573;28;20445;-72
2021/09/03 04:58:57;;;;;;;9.70;5.75;;;;;;;;;;5073724;28;20048;-71
2021/09/03 05:01:23;;;;;;;6.32;5.72;;;;;;;;;;5073790;28;20028;-72
2021/09/03 05:03:49;;;;;;;6.85;6.15;;;;;;;;;;5073666;28;20103;-72
2021/09/03 05:06:16;;;;;;;13.95;7.00;;;;;;;;;;5073322;28;20401;-71
2021/09/03 05:08:42;;;;;;;6.43;5.45;;;;;;;;;;5073236;28;20033;-72
2021/09/03 05:11:08;;;;;;;6.57;5.93;;;;;;;;;;5073323;28;20100;-73
2021/09/03 05:13:34;;;;;;;11.82;6.13;;;;;;;;;;5073229;28;20486;-73
2021/09/03 05:16:00;;;;;;;14.98;5.80;;;;;;;;;;5073358;28;20461;-72
2021/09/03 05:18:27;;;;;;;14.75;8.93;;;;;;;;;;5073403;28;20104;-72
2021/09/03 05:20:53;;;;;;;23.95;8.23;;;;;;;;;;5073318;28;20485;-73
2021/09/03 05:23:19;;;;;;;25.70;8.90;;;;;;;;;;5073342;28;20048;-72
2021/09/03 05:25:45;;;;;;;10.98;7.47;;;;;;;;;;5072941;28;20036;-72
2021/09/03 05:28:11;;;;;;;24.60;12.15;;;;;;;;;;5073342;28;20110;-72
2021/09/03 05:30:37;;;;;;;15.63;11.13;;;;;;;;;;5073274;28;20036;-72
2021/09/03 05:33:03;;;;;;;23.45;11.18;;;;;;;;;;5072566;28;20421;-72
2021/09/03 05:35:29;;;;;;;24.30;11.60;;;;;;;;;;5072453;28;20572;-72
2021/09/03 05:37:56;;;;;;;22.27;10.32;;;;;;;;;;5071137;28;20056;-72
2021/09/03 05:40:22;;;;;;;20.10;10.52;;;;;;;;;;5072202;28;20028;-73
2021/09/03 05:42:49;;;;;;;20.63;12.20;;;;;;;;;;5072635;28;20028;-72
2021/09/03 05:45:15;;;;;;;21.48;11.38;;;;;;;;;;5073213;28;20033;-73
2021/09/03 05:47:45;;;;;;;21.27;9.65;;;;;;;;;;5071471;28;20025;-73
2021/09/03 05:50:11;;;;;;;20.80;10.43;;;;;;;;;;5073244;28;20060;-73
2021/09/03 05:52:37;;;;;;;15.35;9.48;;;;;;;;;;5073002;28;20024;-72
2021/09/03 05:55:04;;;;;;;13.02;9.40;;;;;;;;;;5072823;28;20482;-72
2021/09/03 05:57:30;;;;;;;14.90;9.00;;;;;;;;;;5072509;28;20016;-73
2021/09/03 05:59:59;;;;;;;12.15;9.73;;;;;;;;;;5073134;28;20107;-72
2021/09/03 06:02:31;;;;;;;13.75;8.98;;;;;;;;;;5072503;28;20044;-73
2021/09/03 06:04:57;;;;;;;12.70;8.57;;;;;;;;;;5072802;28;20029;-73
2021/09/03 06:07:24;;;;;;;12.93;8.35;;;;;;;;;;5072486;28;20065;-73
2021/09/03 06:09:50;;;;;;;10.18;8.55;;;;;;;;;;5072594;28;20044;-73
2021/09/03 06:12:16;;;;;;;17.27;9.60;;;;;;;;;;5072618;28;20029;-73
2021/09/03 06:14:42;;;;;;;14.13;7.15;;;;;;;;;;5073168;28;20080;-73
2021/09/03 06:17:08;;;;;;;10.13;7.93;;;;;;;;;;5072789;28;20043;-73
2021/09/03 06:19:34;;;;;;;10.73;7.40;;;;;;;;;;5072566;28;20112;-73
2021/09/03 06:22:01;;;;;;;17.88;8.57;;;;;;;;;;5072337;28;20020;-73
2021/09/03 06:24:31;;;;;;;11.82;7.22;;;;;;;;;;5072404;28;20028;-73
2021/09/03 06:26:58;;;;;;;9.55;7.55;;;;;;;;;;5072759;28;20029;-72
2021/09/03 06:32:11;;;;;;;10.02;8.05;;;;;;;;;;5057811;28;20068;-73
2021/09/03 06:34:39;;;;;;;8.50;7.60;;;;;;;;;;5072425;28;20504;-72
2021/09/03 06:37:06;;;;;;;10.75;6.78;;;;;;;;;;5072135;28;20374;-73
2021/09/03 06:39:32;;;;;;;10.38;8.05;;;;;;;;;;5072082;28;20040;-73
2021/09/03 06:41:58;;;;;;;11.52;7.20;;;;;;;;;;5072644;28;20052;-72
2021/09/03 06:44:24;;;;;;;8.00;6.72;;;;;;;;;;5074856;28;20421;-73
2021/09/03 06:46:50;;;;;;;7.72;5.22;;;;;;;;;;5075640;28;20021;-73
2021/09/03 06:49:16;;;;;;;9.10;6.00;;;;;;;;;;5076011;28;20082;-72
2021/09/03 06:51:42;;;;;;;13.43;6.78;;;;;;;;;;5075371;28;20021;-73
2021/09/03 06:54:08;;;;;;;7.40;6.68;;;;;;;;;;5075974;28;20472;-72
2021/09/03 06:56:34;;;;;;;11.10;6.45;;;;;;;;;;5075731;28;20057;-73
2021/09/03 06:59:02;;;;;;;12.65;6.07;;;;;;;;;;5075716;28;20033;-73
2021/09/03 07:01:28;;;;;;;8.73;6.25;;;;;;;;;;5075343;28;20021;-72
2021/09/03 07:03:54;;;;;;;6.47;5.88;;;;;;;;;;5075427;28;20029;-73
2021/09/03 07:06:20;;;;;;;8.40;7.50;;;;;;;;;;5076081;28;20021;-72
2021/09/03 07:08:46;;;;;;;7.03;6.38;;;;;;;;;;5075587;28;20029;-72
2021/09/03 07:11:12;;;;;;;8.63;6.82;;;;;;;;;;5075523;28;20020;-72
2021/09/03 07:13:38;;;;;;;6.55;5.70;;;;;;;;;;5071630;28;20021;-73
2021/09/03 07:16:05;;;;;;;8.20;5.25;;;;;;;;;;5067327;28;20021;-74
2021/09/03 07:18:31;;;;;;;14.10;6.50;;;;;;;;;;5054103;28;20039;-73
2021/09/03 07:20:57;;;;;;;5.97;5.47;;;;;;;;;;5053411;28;20047;-73
2021/09/03 07:23:23;;;;;;;6.63;5.60;;;;;;;;;;5056325;28;20021;-73
2021/09/03 07:25:49;;;;;;;6.72;5.28;;;;;;;;;;5054453;28;20032;-74
2021/09/03 07:28:15;;;;;;;8.07;4.93;;;;;;;;;;5054717;28;20171;-75
2021/09/03 07:30:41;;;;;;;6.75;5.43;;;;;;;;;;5052917;28;20036;-75
2021/09/03 07:33:08;;;;;;;8.20;4.97;;;;;;;;;;5054258;28;20366;-78
2021/09/03 07:35:34;;;;;;;6.80;4.40;;;;;;;;;;5055498;28;20152;-75
2021/09/03 07:38:00;;;;;;;6.28;4.85;;;;;;;;;;5054606;28;20024;-74
2021/09/03 07:40:27;;;;;;;7.38;5.97;;;;;;;;;;5054629;28;20699;-79
2021/09/03 07:42:53;;;;;;;6.32;5.47;;;;;;;;;;5055962;28;20013;-79
2021/09/03 07:45:19;;;;;;;5.45;4.95;;;;;;;;;;5055104;28;20031;-80
2021/09/03 07:47:45;;;;;;;6.95;5.75;;;;;;;;;;5054169;28;20512;-75
2021/09/03 07:50:11;;;;;;;4.75;4.32;;;;;;;;;;5055585;28;20040;-77
2021/09/03 07:52:37;;;;;;;10.95;4.75;;;;;;;;;;5055858;28;20064;-74
2021/09/03 07:55:04;;;;;;;7.80;5.35;;;;;;;;;;5062366;28;20048;-76
2021/09/03 07:57:30;;;;;;;7.13;5.45;;;;;;;;;;5075362;28;20032;-75
2021/09/03 07:59:56;;;;;;;7.10;5.20;;;;;;;;;;5075932;28;20119;-75
2021/09/03 08:02:22;;;;;;;9.10;4.50;;;;;;;;;;5076203;28;20103;-76
2021/09/03 08:04:48;;;;;;;10.38;5.47;;;;;;;;;;5074356;28;20047;-77
2021/09/03 08:07:14;;;;;;;8.90;4.80;;;;;;;;;;5075343;28;20025;-75
2021/09/03 08:09:40;;;;;;;6.63;6.03;;;;;;;;;;5075705;28;20162;-75
2021/09/03 08:12:07;;;;;;;7.00;5.00;;;;;;;;;;5075500;28;20043;-74
2021/09/03 08:14:35;;;;;;;6.28;4.88;;;;;;;;;;5073657;28;20108;-75
2021/09/03 08:17:01;;;;;;;7.80;4.97;;;;;;;;;;5074486;28;20028;-75
2021/09/03 08:19:27;;;;;;;7.13;5.18;;;;;;;;;;5074999;28;20051;-77
2021/09/03 08:21:53;;;;;;;9.18;5.28;;;;;;;;;;5074523;28;20024;-76
2021/09/03 08:24:19;;;;;;;4.93;4.47;;;;;;;;;;5075320;28;20020;-80
2021/09/03 08:26:45;;;;;;;6.20;5.60;;;;;;;;;;5076789;28;20029;-79
2021/09/03 08:29:11;;;;;;;14.30;6.05;;;;;;;;;;5076833;28;20028;-79
2021/09/03 08:31:37;;;;;;;10.43;4.93;;;;;;;;;;5076452;28;20091;-79
2021/09/03 08:34:05;;;;;;;7.32;5.88;;;;;;;;;;5076588;28;20078;-79
2021/09/03 08:36:31;;;;;;;9.13;5.85;;;;;;;;;;5077408;28;20021;-78
2021/09/03 08:38:57;;;;;;;9.27;6.28;;;;;;;;;;5076706;28;20034;-79
2021/09/03 08:41:23;;;;;;;9.38;6.78;;;;;;;;;;5076812;28;20478;-78
2021/09/03 08:43:49;;;;;;;7.97;6.28;;;;;;;;;;5076940;28;20035;-79
2021/09/03 08:46:16;;;;;;;9.15;5.88;;;;;;;;;;5076552;28;20025;-78
2021/09/03 08:48:42;;;;;;;14.82;7.50;;;;;;;;;;5077278;28;20016;-79
2021/09/03 08:51:08;;;;;;;8.20;6.25;;;;;;;;;;5076939;28;20047;-78
2021/09/03 08:53:34;;;;;;;8.13;6.45;;;;;;;;;;5077008;28;20048;-79
2021/09/03 08:56:00;;;;;;;9.95;7.60;;;;;;;;;;5076319;28;20053;-79
2021/09/03 08:58:26;;;;;;;10.18;6.78;;;;;;;;;;5075407;28;20548;-75
2021/09/03 09:01:12;;;;;;;10.90;6.95;;;;;;;;;;5076492;28;20043;-77
2021/09/03 09:03:39;;;;;;;12.60;7.05;;;;;;;;;;5060398;28;20016;-78
2021/09/03 09:06:05;;;;;;;9.57;6.90;;;;;;;;;;5074807;28;20074;-76
2021/09/03 09:08:32;;;;;;;9.63;6.75;;;;;;;;;;5076110;28;20020;-80
2021/09/03 09:11:00;;;;;;;7.72;6.03;;;;;;;;;;5075703;28;20402;-78
2021/09/03 09:13:27;;;;;;;14.27;7.03;;;;;;;;;;5075604;28;20430;-78
2021/09/03 09:15:57;;;;;;;10.20;7.55;;;;;;;;;;5075467;28;20028;-78
2021/09/03 09:18:39;;;;;;;10.27;6.93;;;;;;;;;;5075602;28;20104;-77
2021/09/03 09:21:06;;;;;;;10.75;7.68;;;;;;;;;;5075761;28;20511;-79
2021/09/03 09:23:52;;;;;;;11.07;7.30;;;;;;;;;;5075652;28;20401;-83
2021/09/03 09:26:24;;;;;;;10.90;6.65;;;;;;;;;;5060977;28;20116;-78
2021/09/03 09:28:50;;;;;;;8.30;7.40;;;;;;;;;;5074571;28;20051;-77
2021/09/03 09:31:32;;;;;;;10.05;6.93;;;;;;;;;;5072661;28;20051;-78
2021/09/03 09:33:59;;;;;;;11.35;7.78;;;;;;;;;;5073572;28;20462;-79
2021/09/03 09:36:32;;;;;;;9.40;6.93;;;;;;;;;;5073342;28;20085;-80
2021/09/03 09:38:58;;;;;;;16.23;10.55;;;;;;;;;;5073926;28;20478;-78
2021/09/03 09:41:25;;;;;;;65.63;17.27;;;;;;;;;;5073946;28;20481;-78
2021/09/03 09:43:51;;;;;;;30.83;13.25;;;;;;;;;;5073077;28;20021;-78
2021/09/03 09:46:19;;;;;;;19.55;11.13;;;;;;;;;;5073296;28;20024;-79
2021/09/03 09:48:56;;;;;;;18.60;9.70;;;;;;;;;;5073575;28;20107;-78
2021/09/03 09:51:41;;;;;;;17.27;9.75;;;;;;;;;;5073974;28;20083;-80
2021/09/03 09:54:14;;;;;;;27.15;11.55;;;;;;;;;;5073436;28;20025;-78
2021/09/03 09:56:45;;;;;;;21.05;11.15;;;;;;;;;;5072918;28;20028;-78
2021/09/03 09:59:11;;;;;;;20.23;10.25;;;;;;;;;;5073502;28;20032;-77
2021/09/03 10:01:38;;;;;;;13.02;7.45;;;;;;;;;;5072769;28;20434;-78
2021/09/03 10:04:05;;;;;;;19.55;9.68;;;;;;;;;;5073678;28;20032;-78
2021/09/03 10:06:31;;;;;;;19.95;9.70;;;;;;;;;;5073876;28;20017;-79
2021/09/03 10:08:58;;;;;;;13.15;8.55;;;;;;;;;;5073442;28;20032;-79
2021/09/03 10:11:24;;;;;;;18.27;9.55;;;;;;;;;;5072907;28;20466;-78
2021/09/03 10:13:51;;;;;;;10.13;8.52;;;;;;;;;;5073091;28;20027;-78
2021/09/03 10:16:17;;;;;;;13.57;7.93;;;;;;;;;;5073333;28;20020;-80
2021/09/03 10:18:44;;;;;;;11.43;7.88;;;;;;;;;;5074737;28;20029;-79
2021/09/03 10:21:10;;;;;;;16.05;8.07;;;;;;;;;;5077541;28;20081;-80
2021/09/03 10:23:52;;;;;;;8.23;6.68;;;;;;;;;;5076968;28;20021;-79
2021/09/03 10:26:26;;;;;;;7.07;6.05;;;;;;;;;;5077345;28;20420;-79
2021/09/03 10:29:12;;;;;;;10.88;7.72;;;;;;;;;;5076933;28;20020;-79
2021/09/03 10:31:58;;;;;;;10.23;7.53;;;;;;;;;;5061718;28;20024;-80
2021/09/03 10:34:45;;;;;;;6.68;5.82;;;;;;;;;;5062343;28;20373;-81
2021/09/03 10:37:25;;;;;;;12.35;6.85;;;;;;;;;;5061904;28;20036;-79
2021/09/03 10:40:04;;;;;;;9.55;7.10;;;;;;;;;;5076742;28;20104;-79
2021/09/03 10:42:49;;;;;;;7.28;6.53;;;;;;;;;;5077189;28;20024;-78
2021/09/03 10:45:18;;;;;;;10.48;7.90;;;;;;;;;;5076736;28;20501;-78
2021/09/03 10:47:46;;;;;;;11.05;6.82;;;;;;;;;;5076844;28;20090;-78
2021/09/03 10:50:22;;;;;;;8.80;7.20;;;;;;;;;;5076893;28;20117;-79
2021/09/03 10:53:10;;;;;;;7.63;6.68;;;;;;;;;;5077310;28;20033;-78
2021/09/03 10:55:56;;;;;;;10.98;7.22;;;;;;;;;;5062149;28;20047;-78
2021/09/03 10:58:42;;;;;;;9.68;7.30;;;;;;;;;;5062196;28;20024;-79
2021/09/03 11:01:28;;;;;;;7.47;6.63;;;;;;;;;;5061961;28;20052;-79
2021/09/03 11:04:13;;;;;;;13.20;6.25;;;;;;;;;;5061285;28;20382;-80
2021/09/03 11:06:40;;;;;;;14.10;7.22;;;;;;;;;;5076646;28;20386;-78
2021/09/03 11:09:26;;;;;;;7.55;6.82;;;;;;;;;;5076313;28;20389;-79
2021/09/03 11:11:53;;;;;;;7.75;6.55;;;;;;;;;;5061648;28;20032;-79
2021/09/03 11:14:21;;;;;;;7.78;6.85;;;;;;;;;;5076256;28;20024;-78
2021/09/03 11:16:53;;;;;;;7.20;6.50;;;;;;;;;;5075805;28;20035;-79
2021/09/03 11:19:23;;;;;;;7.82;7.13;;;;;;;;;;5076549;28;20021;-79
2021/09/03 11:21:54;;;;;;;7.85;7.05;;;;;;;;;;5076265;28;20032;-78
2021/09/03 11:24:22;;;;;;;18.65;8.35;;;;;;;;;;5076500;28;20408;-79
2021/09/03 11:26:48;;;;;;;11.93;7.05;;;;;;;;;;5075857;28;20035;-79
2021/09/03 11:29:30;;;;;;;9.15;7.18;;;;;;;;;;5075981;28;20037;-78
2021/09/03 11:31:56;;;;;;;;;;;;;;;;;;5076690;28;20035;-79
2021/09/03 11:34:43;;;;;;;13.48;8.90;;;;;;;;;;5073472;28;19904;-77
2021/09/03 11:37:09;;;;;;;10.95;8.57;;;;;;;;;;5061240;28;20020;-75
2021/09/03 11:39:36;;;;;;;8.65;7.72;;;;;;;;;;5075436;28;20478;-76
2021/09/03 11:42:02;;;;;;;7.78;7.00;;;;;;;;;;5075180;28;20025;-75
2021/09/03 11:44:28;;;;;;;10.52;7.25;;;;;;;;;;5076551;28;20032;-74
2021/09/03 11:46:54;;;;;;;11.48;8.20;;;;;;;;;;5077326;28;20073;-73
2021/09/03 11:49:21;;;;;;;7.97;7.18;;;;;;;;;;5076341;28;20054;-74
2021/09/03 11:51:47;;;;;;;9.40;7.95;;;;;;;;;;5075653;28;20033;-74
2021/09/03 11:54:15;;;;;;;7.97;7.22;;;;;;;;;;5075783;28;20112;-73
2021/09/03 11:56:41;;;;;;;9.55;7.20;;;;;;;;;;5074455;28;20493;-73
2021/09/03 11:59:08;;;;;;;10.57;8.57;;;;;;;;;;5074104;28;20056;-73
2021/09/03 12:01:34;;;;;;;9.82;8.77;;;;;;;;;;5074380;28;20028;-73
2021/09/03 12:04:06;;;;;;;11.77;7.63;;;;;;;;;;5073224;28;20025;-73
2021/09/03 12:06:32;;;;;;;8.18;7.38;;;;;;;;;;5074613;28;20031;-73
2021/09/03 12:08:58;;;;;;;11.60;6.70;;;;;;;;;;5073327;28;20071;-75
2021/09/03 12:11:24;;;;;;;9.57;8.20;;;;;;;;;;5075170;28;20020;-72
2021/09/03 12:13:56;;;;;;;11.98;8.43;;;;;;;;;;5075656;28;20052;-74
2021/09/03 12:16:23;;;;;;;8.52;7.65;;;;;;;;;;5073152;28;20067;-74
2021/09/03 12:18:53;;;;;;;7.32;6.47;;;;;;;;;;5074847;28;20052;-75
2021/09/03 12:21:24;;;;;;;14.82;6.80;;;;;;;;;;5075296;28;20137;-76
2021/09/03 12:24:02;;;;;;;8.52;7.13;;;;;;;;;;5074115;28;20024;-77
2021/09/03 12:26:36;;;;;;;13.60;7.32;;;;;;;;;;5074653;28;20021;-77
2021/09/03 12:29:02;;;;;;;8.68;7.30;;;;;;;;;;5075244;28;20060;-79
2021/09/03 12:31:29;;;;;;;9.48;6.25;;;;;;;;;;5074573;28;20024;-78
2021/09/03 12:33:56;;;;;;;28.85;8.00;;;;;;;;;;5075191;28;20445;-77
2021/09/03 12:36:23;;;;;;;18.98;6.28;;;;;;;;;;5074653;28;20075;-77
2021/09/03 12:38:50;;;;;;;9.70;8.23;;;;;;;;;;5074561;28;20024;-76
2021/09/03 12:41:18;;;;;;;11.75;6.75;;;;;;;;;;5070632;28;20028;-77
2021/09/03 12:43:44;;;;;;;7.18;6.00;;;;;;;;;;5074389;28;20025;-77
2021/09/03 12:46:12;;;;;;;10.63;7.20;;;;;;;;;;5074821;28;20409;-77
2021/09/03 12:48:38;;;;;;;14.93;8.13;;;;;;;;;;5073923;28;20017;-77
2021/09/03 12:51:04;;;;;;;10.57;7.03;;;;;;;;;;5075119;28;20040;-74
2021/09/03 12:53:30;;;;;;;15.48;5.82;;;;;;;;;;5074499;28;20378;-73
2021/09/03 12:55:57;;;;;;;7.05;5.90;;;;;;;;;;5075114;28;20044;-75
2021/09/03 12:58:23;;;;;;;7.75;6.95;;;;;;;;;;5073960;28;20024;-75
2021/09/03 13:00:49;;;;;;;16.45;7.45;;;;;;;;;;5073336;28;20059;-76
2021/09/03 13:03:15;;;;;;;8.27;6.50;;;;;;;;;;5074088;28;20077;-74
2021/09/03 13:05:43;;;;;;;10.45;7.28;;;;;;;;;;5074177;28;20028;-71
2021/09/03 13:08:09;;;;;;;8.23;7.10;;;;;;;;;;5073727;28;20465;-71
2021/09/03 13:10:35;;;;;;;7.85;6.10;;;;;;;;;;5072283;28;20044;-69
2021/09/03 13:13:02;;;;;;;9.48;7.05;;;;;;;;;;5074184;28;20027;-72
2021/09/03 13:15:28;;;;;;;15.15;7.53;;;;;;;;;;5073246;28;20074;-72
2021/09/03 13:17:54;;;;;;;10.48;6.68;;;;;;;;;;5072980;28;20032;-71
2021/09/03 13:20:20;;;;;;;15.60;7.10;;;;;;;;;;5072418;28;20035;-74
2021/09/03 13:22:46;;;;;;;13.90;7.07;;;;;;;;;;5073899;28;20025;-72
2021/09/03 13:25:12;;;;;;;7.63;6.85;;;;;;;;;;5074619;28;20029;-75
2021/09/03 13:27:38;;;;;;;8.07;6.53;;;;;;;;;;5073552;28;20055;-75
2021/09/03 13:30:05;;;;;;;10.20;6.63;;;;;;;;;;5071954;28;20142;-73
2021/09/03 13:32:31;;;;;;;7.60;6.32;;;;;;;;;;5073033;28;20029;-74
2021/09/03 13:34:57;;;;;;;8.77;7.00;;;;;;;;;;5073524;28;20082;-76
2021/09/03 13:37:23;;;;;;;8.60;6.95;;;;;;;;;;5073517;28;20025;-74
2021/09/03 13:39:50;;;;;;;7.18;6.35;;;;;;;;;;5072417;28;20033;-75
2021/09/03 13:42:16;;;;;;;7.43;5.90;;;;;;;;;;5073326;28;20036;-74
2021/09/03 13:44:42;;;;;;;14.82;7.22;;;;;;;;;;5072537;28;20028;-75
2021/09/03 13:47:08;;;;;;;10.23;6.60;;;;;;;;;;5072813;28;20031;-74
2021/09/03 13:49:34;;;;;;;9.90;6.78;;;;;;;;;;5071722;28;20072;-74
2021/09/03 13:52:00;;;;;;;7.78;6.40;;;;;;;;;;5074026;28;20489;-76
2021/09/03 13:54:26;;;;;;;6.80;6.10;;;;;;;;;;5075458;28;20434;-79
2021/09/03 13:56:53;;;;;;;6.80;6.10;;;;;;;;;;5077595;28;20021;-79
2021/09/03 13:59:19;;;;;;;14.50;6.10;;;;;;;;;;5078105;28;20041;-78
2021/09/03 14:01:45;;;;;;;6.97;5.93;;;;;;;;;;5077447;28;20021;-78
2021/09/03 14:04:11;;;;;;;11.10;6.55;;;;;;;;;;5077061;28;20032;-79
2021/09/03 14:06:38;;;;;;;6.88;5.65;;;;;;;;;;5077322;28;20074;-78
2021/09/03 14:09:04;;;;;;;7.10;5.50;;;;;;;;;;5077870;28;20577;-79
2021/09/03 14:11:30;;;;;;;5.80;5.18;;;;;;;;;;5077417;28;20115;-79
2021/09/03 14:13:56;;;;;;;7.05;6.20;;;;;;;;;;5077611;28;20028;-78
2021/09/03 14:16:22;;;;;;;7.95;5.93;;;;;;;;;;5077361;28;20032;-78
2021/09/03 14:18:48;;;;;;;6.35;5.43;;;;;;;;;;5077129;28;20035;-78
2021/09/03 14:21:14;;;;;;;7.32;6.60;;;;;;;;;;5077173;28;20025;-79
2021/09/03 14:23:40;;;;;;;5.97;5.47;;;;;;;;;;5077377;28;20020;-78
2021/09/03 14:26:09;;;;;;;7.03;6.13;;;;;;;;;;5076954;28;20119;-77
2021/09/03 14:28:35;;;;;;;7.05;6.28;;;;;;;;;;5077521;28;20031;-78
2021/09/03 14:31:01;;;;;;;6.10;5.10;;;;;;;;;;5076827;28;20036;-78
2021/09/03 14:33:27;;;;;;;7.05;6.07;;;;;;;;;;5076569;28;20025;-79
2021/09/03 14:35:53;;;;;;;6.95;5.63;;;;;;;;;;5076907;28;20491;-77
2021/09/03 14:38:19;;;;;;;7.50;6.38;;;;;;;;;;5077047;28;20048;-78
2021/09/03 14:40:45;;;;;;;7.07;6.32;;;;;;;;;;5076414;28;20029;-79
2021/09/03 14:43:11;;;;;;;7.57;6.38;;;;;;;;;;5076928;28;20125;-78